Time;durP1;ratioP1;P1;durP2;ratioP2;P2;SDS_P1;SDS_P2;PMS_P1;PMS_P2;Temp;Humidity;BMP_temperature;BMP_pressure;BME280_temperature;BME280_humidity;BME280_pressure;Samples;Min_cycle;Max_cycle;Signal;HPM_P1;HPM_P2
2020/12/25 00:01:20;;;;;;;12.40;2.40;;;5.10;91.60;;;;;;5075435;28;20029;-77
2020/12/25 00:03:46;;;;;;;7.07;2.05;;;5.10;91.60;;;;;;5075752;28;20021;-77
2020/12/25 00:06:12;;;;;;;10.25;2.20;;;5.10;91.60;;;;;;5073938;28;20032;-77
2020/12/25 00:08:38;;;;;;;13.40;2.17;;;5.10;91.50;;;;;;5093950;28;20036;-77
2020/12/25 00:11:03;;;;;;;5.75;1.98;;;5.10;91.60;;;;;;5076849;28;20641;-77
2020/12/25 00:13:29;;;;;;;5.15;1.60;;;5.10;91.70;;;;;;5095121;28;20030;-77
2020/12/25 00:15:55;;;;;;;14.00;2.30;;;5.10;91.50;;;;;;5076987;28;20031;-77
2020/12/25 00:18:20;;;;;;;10.25;1.88;;;5.10;91.50;;;;;;5076749;28;20043;-77
2020/12/25 00:20:53;;;;;;;13.75;2.60;;;5.10;91.50;;;;;;5076889;28;20024;-77
2020/12/25 00:23:19;;;;;;;12.02;2.30;;;5.10;91.50;;;;;;5060601;28;20035;-77
2020/12/25 00:25:45;;;;;;;12.32;2.17;;;5.10;91.40;;;;;;5093383;28;20103;-77
2020/12/25 00:28:11;;;;;;;6.85;1.80;;;5.00;91.40;;;;;;5092662;28;20021;-77
2020/12/25 00:30:37;;;;;;;11.65;2.13;;;5.00;91.30;;;;;;5074733;28;20089;-77
2020/12/25 00:33:02;;;;;;;11.23;2.05;;;5.00;91.30;;;;;;5075802;28;20089;-77
2020/12/25 00:35:28;;;;;;;14.13;2.35;;;5.00;91.40;;;;;;5057284;28;20067;-77
2020/12/25 00:37:54;;;;;;;13.98;2.40;;;5.00;91.40;;;;;;5076047;28;20476;-77
2020/12/25 00:40:19;;;;;;;10.48;2.50;;;5.00;91.40;;;;;;5076814;28;20032;-77
2020/12/25 00:42:45;;;;;;;13.77;2.72;;;5.00;91.30;;;;;;5058205;28;20031;-77
2020/12/25 00:45:11;;;;;;;16.95;2.60;;;5.00;91.30;;;;;;5092128;28;20027;-77
2020/12/25 00:47:36;;;;;;;10.98;3.60;;;4.90;91.30;;;;;;5076116;28;20048;-77
2020/12/25 00:50:02;;;;;;;13.60;2.28;;;4.90;91.30;;;;;;5074880;28;20080;-77
2020/12/25 00:52:28;;;;;;;11.18;2.97;;;4.90;91.30;;;;;;5084578;28;20040;-77
2020/12/25 00:54:53;;;;;;;12.60;2.35;;;4.90;91.40;;;;;;5041602;28;20047;-78
2020/12/25 00:57:19;;;;;;;12.68;2.05;;;4.90;91.40;;;;;;5060781;28;20032;-78
2020/12/25 00:59:45;;;;;;;12.20;2.72;;;4.90;91.40;;;;;;5076863;28;20050;-77
2020/12/25 01:02:11;;;;;;;8.27;2.10;;;4.90;91.40;;;;;;5039349;28;20028;-77
2020/12/25 01:04:37;;;;;;;11.98;1.80;;;4.90;91.30;;;;;;5076364;28;20024;-77
2020/12/25 01:07:06;;;;;;;10.65;1.95;;;4.90;91.40;;;;;;5076192;28;20127;-77
2020/12/25 01:09:32;;;;;;;10.45;2.45;;;4.90;91.40;;;;;;5092760;28;20055;-77
2020/12/25 01:11:59;;;;;;;11.00;2.55;;;4.90;91.30;;;;;;5059588;28;20394;-77
2020/12/25 01:14:28;;;;;;;10.45;2.20;;;4.90;91.30;;;;;;5094044;28;20099;-77
2020/12/25 01:16:55;;;;;;;10.48;2.03;;;4.90;91.30;;;;;;5093955;28;20492;-77
2020/12/25 01:19:24;;;;;;;12.20;2.00;;;4.90;91.20;;;;;;5042421;28;20902;-77
2020/12/25 01:21:50;;;;;;;17.13;1.90;;;4.90;91.20;;;;;;5090372;28;20077;-77
2020/12/25 01:24:17;;;;;;;14.20;2.15;;;4.90;91.20;;;;;;5092713;28;20526;-77
2020/12/25 01:26:42;;;;;;;10.13;2.25;;;4.90;91.50;;;;;;5073184;28;20421;-77
2020/12/25 01:29:08;;;;;;;11.68;2.10;;;4.90;91.20;;;;;;5074701;28;20044;-77
2020/12/25 01:31:34;;;;;;;12.98;2.08;;;4.90;91.20;;;;;;5056848;28;20399;-77
2020/12/25 01:33:59;;;;;;;8.02;2.08;;;4.90;91.20;;;;;;5073244;28;20043;-77
2020/12/25 01:36:25;;;;;;;11.82;2.10;;;4.90;91.20;;;;;;5074482;28;20036;-77
2020/12/25 01:38:52;;;;;;;8.73;1.75;;;4.90;91.20;;;;;;5055729;28;20032;-77
2020/12/25 01:41:17;;;;;;;10.63;2.00;;;4.90;91.20;;;;;;5079214;28;20385;-77
2020/12/25 01:43:43;;;;;;;12.50;2.30;;;4.90;91.20;;;;;;5074917;28;20028;-77
2020/12/25 01:46:10;;;;;;;8.65;2.40;;;4.90;91.20;;;;;;5072537;28;20051;-77
2020/12/25 01:48:38;;;;;;;14.60;2.08;;;4.90;91.20;;;;;;5074858;28;20221;-77
2020/12/25 01:51:05;;;;;;;8.27;1.58;;;4.90;91.20;;;;;;5074899;28;20109;-77
2020/12/25 01:53:33;;;;;;;9.55;1.77;;;4.90;91.20;;;;;;5064750;28;20081;-77
2020/12/25 01:56:00;;;;;;;9.95;1.70;;;4.80;91.00;;;;;;5075274;28;20020;-77
2020/12/25 01:58:28;;;;;;;17.10;1.98;;;4.80;91.10;;;;;;5074995;28;20460;-77
2020/12/25 02:00:53;;;;;;;13.52;2.05;;;4.80;91.00;;;;;;5072844;28;20052;-77
2020/12/25 02:03:19;;;;;;;11.35;2.05;;;4.70;91.00;;;;;;5058664;28;20056;-77
2020/12/25 02:05:45;;;;;;;13.73;1.90;;;4.70;91.00;;;;;;5057165;28;20904;-77
2020/12/25 02:08:12;;;;;;;12.65;2.22;;;4.60;91.10;;;;;;5058012;28;20047;-77
2020/12/25 02:10:39;;;;;;;14.15;2.10;;;4.60;91.10;;;;;;5074981;28;20035;-77
2020/12/25 02:13:05;;;;;;;11.43;2.00;;;4.60;91.00;;;;;;5058170;28;20399;-76
2020/12/25 02:15:32;;;;;;;13.95;2.45;;;4.50;91.10;;;;;;5074600;28;20028;-79
2020/12/25 02:17:57;;;;;;;11.45;2.03;;;4.50;91.10;;;;;;5092542;28;20431;-79
2020/12/25 02:20:23;;;;;;;16.50;2.30;;;4.40;91.10;;;;;;5074838;28;20036;-78
2020/12/25 02:22:49;;;;;;;17.77;2.30;;;4.40;91.10;;;;;;5058017;28;20056;-76
2020/12/25 02:25:14;;;;;;;8.70;1.80;;;4.30;91.10;;;;;;5074564;28;20052;-76
2020/12/25 02:27:40;;;;;;;18.90;2.50;;;4.30;91.20;;;;;;5074375;28;20025;-76
2020/12/25 02:30:07;;;;;;;15.80;2.22;;;4.30;91.10;;;;;;5074199;28;20053;-76
2020/12/25 02:32:34;;;;;;;17.58;3.10;;;4.20;91.20;;;;;;5074037;28;20380;-76
2020/12/25 02:34:59;;;;;;;13.60;2.17;;;4.20;91.20;;;;;;5092575;28;20153;-76
2020/12/25 02:37:25;;;;;;;11.70;2.90;;;4.10;91.30;;;;;;5092152;28;20102;-76
2020/12/25 02:39:51;;;;;;;17.10;2.78;;;4.10;91.30;;;;;;5092449;28;20514;-76
2020/12/25 02:42:17;;;;;;;13.15;3.63;;;4.10;91.40;;;;;;5091885;28;20030;-76
2020/12/25 02:44:43;;;;;;;15.40;2.50;;;4.00;91.40;;;;;;5074289;28;20028;-76
2020/12/25 02:47:10;;;;;;;13.30;2.50;;;4.00;91.40;;;;;;5074566;28;20036;-76
2020/12/25 02:49:35;;;;;;;12.80;2.40;;;4.00;91.40;;;;;;5092250;28;20349;-76
2020/12/25 02:52:01;;;;;;;17.80;2.75;;;4.00;91.40;;;;;;5074046;28;20034;-76
2020/12/25 02:54:26;;;;;;;13.45;2.97;;;4.00;91.40;;;;;;5092418;28;20040;-76
2020/12/25 02:56:52;;;;;;;14.30;2.90;;;3.90;91.40;;;;;;5077880;28;20111;-76
2020/12/25 02:59:17;;;;;;;17.67;3.50;;;3.90;91.50;;;;;;5057345;28;20480;-76
2020/12/25 03:01:50;;;;;;;15.98;3.28;;;3.90;91.70;;;;;;5075795;28;20081;-76
2020/12/25 03:04:16;;;;;;;20.98;3.53;;;3.90;91.50;;;;;;5077937;28;20089;-78
2020/12/25 03:06:42;;;;;;;16.05;3.30;;;3.90;91.50;;;;;;5078351;28;20032;-78
2020/12/25 03:09:08;;;;;;;15.68;3.30;;;3.80;91.40;;;;;;5096344;28;20032;-78
2020/12/25 03:11:34;;;;;;;15.77;2.92;;;3.80;91.40;;;;;;5077887;28;20514;-78
2020/12/25 03:13:59;;;;;;;11.57;2.20;;;3.80;91.50;;;;;;5095585;28;20036;-76
2020/12/25 03:16:25;;;;;;;11.95;2.20;;;3.80;91.50;;;;;;5076643;28;20765;-75
2020/12/25 03:18:50;;;;;;;11.98;2.08;;;3.80;91.50;;;;;;5077277;28;20032;-76
2020/12/25 03:21:16;;;;;;;15.75;2.10;;;3.70;91.50;;;;;;5044836;28;20056;-76
2020/12/25 03:23:42;;;;;;;11.52;1.67;;;3.70;91.40;;;;;;5078076;28;20109;-76
2020/12/25 03:26:08;;;;;;;11.82;2.00;;;3.70;91.50;;;;;;5077550;28;20069;-76
2020/12/25 03:28:33;;;;;;;11.63;2.00;;;3.70;91.50;;;;;;5077364;28;20091;-76
2020/12/25 03:30:59;;;;;;;19.02;2.20;;;3.70;91.50;;;;;;5061070;28;20066;-76
2020/12/25 03:33:24;;;;;;;18.70;2.30;;;3.60;91.50;;;;;;5077853;28;20021;-76
2020/12/25 03:35:51;;;;;;;15.23;2.10;;;3.60;91.60;;;;;;5095690;28;20368;-77
2020/12/25 03:38:17;;;;;;;16.25;2.60;;;3.60;91.60;;;;;;5077816;28;20023;-76
2020/12/25 03:40:43;;;;;;;18.88;2.05;;;3.60;91.60;;;;;;5057274;28;20035;-76
2020/12/25 03:43:09;;;;;;;13.68;2.28;;;3.60;91.70;;;;;;5075715;28;20111;-77
2020/12/25 03:45:34;;;;;;;18.35;2.38;;;3.60;92.00;;;;;;5091609;28;20036;-77
2020/12/25 03:48:00;;;;;;;11.35;1.63;;;3.50;91.70;;;;;;5077718;28;20086;-76
2020/12/25 03:50:29;;;;;;;13.85;2.40;;;3.50;91.80;;;;;;5060796;28;20032;-76
2020/12/25 03:52:55;;;;;;;15.00;1.70;;;3.50;91.80;;;;;;5077024;28;20365;-76
2020/12/25 03:55:21;;;;;;;16.33;2.30;;;3.50;91.80;;;;;;5077608;28;20054;-76
2020/12/25 03:57:47;;;;;;;10.65;2.10;;;3.50;91.80;;;;;;5077384;28;20016;-76
2020/12/25 04:00:13;;;;;;;12.23;2.00;;;3.50;91.80;;;;;;5060791;28;20405;-76
2020/12/25 04:02:39;;;;;;;17.60;2.70;;;3.50;91.80;;;;;;5077340;28;20024;-76
2020/12/25 04:05:05;;;;;;;13.95;1.77;;;3.50;91.80;;;;;;5095585;28;20040;-79
2020/12/25 04:07:30;;;;;;;9.93;1.60;;;3.50;91.80;;;;;;5076974;28;20070;-78
2020/12/25 04:09:56;;;;;;;14.38;2.00;;;3.40;91.80;;;;;;5060428;28;20028;-79
2020/12/25 04:12:21;;;;;;;12.55;2.35;;;3.40;91.90;;;;;;5095109;28;20067;-78
2020/12/25 04:14:47;;;;;;;18.02;2.60;;;3.40;91.90;;;;;;5077211;28;20070;-78
2020/12/25 04:17:12;;;;;;;7.55;1.60;;;3.40;91.90;;;;;;5076893;28;20036;-78
2020/12/25 04:19:38;;;;;;;6.38;1.77;;;3.40;92.00;;;;;;5060176;28;20035;-78
2020/12/25 04:22:04;;;;;;;8.30;1.73;;;3.50;92.00;;;;;;5076835;28;20047;-79
2020/12/25 04:24:29;;;;;;;9.95;2.00;;;3.40;92.00;;;;;;5095060;28;20024;-79
2020/12/25 04:26:55;;;;;;;6.72;1.33;;;3.50;92.00;;;;;;5076598;28;20025;-79
2020/12/25 04:29:20;;;;;;;10.32;2.00;;;3.50;92.00;;;;;;5076742;28;20032;-78
2020/12/25 04:31:46;;;;;;;12.32;1.77;;;3.60;92.00;;;;;;5076038;28;20036;-78
2020/12/25 04:34:12;;;;;;;6.53;1.63;;;3.60;91.90;;;;;;5094580;28;20055;-78
2020/12/25 04:36:38;;;;;;;6.15;1.38;;;3.60;91.90;;;;;;5076417;28;20114;-78
2020/12/25 04:39:05;;;;;;;9.63;1.55;;;3.60;91.90;;;;;;5076994;28;20123;-78
2020/12/25 04:41:31;;;;;;;13.35;1.45;;;3.60;91.90;;;;;;5076297;28;20485;-79
2020/12/25 04:43:59;;;;;;;9.35;1.55;;;3.70;91.90;;;;;;5076359;28;20465;-79
2020/12/25 04:46:26;;;;;;;4.22;1.08;;;3.60;92.10;;;;;;5094108;28;20024;-78
2020/12/25 04:48:51;;;;;;;6.00;1.48;;;3.70;91.90;;;;;;5094290;28;20026;-78
2020/12/25 04:51:17;;;;;;;6.28;1.20;;;3.70;91.90;;;;;;5091939;28;20107;-78
2020/12/25 04:53:51;;;;;;;8.68;2.00;;;3.70;91.90;;;;;;5076275;28;20020;-79
2020/12/25 04:56:21;;;;;;;12.45;1.90;;;3.60;91.80;;;;;;5092427;28;20032;-77
2020/12/25 04:58:48;;;;;;;8.88;1.55;;;3.60;91.70;;;;;;5094391;28;20035;-76
2020/12/25 05:01:14;;;;;;;7.13;1.58;;;3.60;91.70;;;;;;5076276;28;20410;-77
2020/12/25 05:03:41;;;;;;;8.00;1.77;;;3.60;91.70;;;;;;5094773;28;20540;-77
2020/12/25 05:06:10;;;;;;;8.73;1.33;;;3.60;91.70;;;;;;5075942;28;20024;-77
2020/12/25 05:08:41;;;;;;;10.27;1.83;;;3.60;91.80;;;;;;5075548;28;20079;-77
2020/12/25 05:11:09;;;;;;;11.88;2.22;;;3.50;91.80;;;;;;5059739;28;20107;-76
2020/12/25 05:13:46;;;;;;;10.63;2.17;;;3.60;91.70;;;;;;5094074;28;20032;-77
2020/12/25 05:16:13;;;;;;;9.15;1.90;;;3.50;91.70;;;;;;5090743;28;20063;-77
2020/12/25 05:18:44;;;;;;;8.30;1.50;;;3.50;91.70;;;;;;5092401;28;20028;-77
2020/12/25 05:21:15;;;;;;;11.30;1.30;;;3.50;91.70;;;;;;5075590;28;20024;-77
2020/12/25 05:23:42;;;;;;;10.75;1.67;;;3.50;91.70;;;;;;5059220;28;20047;-76
2020/12/25 05:26:09;;;;;;;11.07;1.35;;;3.40;91.70;;;;;;5091832;28;20035;-76
2020/12/25 05:28:37;;;;;;;8.02;1.65;;;3.40;91.70;;;;;;5072704;28;20027;-76
2020/12/25 05:31:03;;;;;;;9.38;1.52;;;3.30;91.70;;;;;;5090838;28;20024;-76
2020/12/25 05:33:30;;;;;;;13.52;2.33;;;3.30;91.70;;;;;;5074355;28;20051;-77
2020/12/25 05:35:56;;;;;;;8.55;1.65;;;3.30;91.80;;;;;;5075482;28;20055;-76
2020/12/25 05:38:22;;;;;;;8.20;1.25;;;3.20;91.80;;;;;;5093586;28;20075;-76
2020/12/25 05:40:48;;;;;;;8.02;1.02;;;3.10;91.80;;;;;;5093718;28;20399;-76
2020/12/25 05:43:16;;;;;;;8.25;1.45;;;3.20;91.90;;;;;;5075162;28;20050;-77
2020/12/25 05:45:43;;;;;;;8.20;1.33;;;3.10;92.00;;;;;;5075957;28;20024;-77
2020/12/25 05:48:09;;;;;;;6.55;1.30;;;3.10;92.00;;;;;;5094039;28;20066;-77
2020/12/25 05:50:36;;;;;;;5.72;1.17;;;3.00;92.00;;;;;;5094416;28;20122;-76
2020/12/25 05:53:02;;;;;;;6.45;1.40;;;3.00;92.00;;;;;;5076205;28;20111;-76
2020/12/25 05:55:32;;;;;;;9.55;1.40;;;3.00;92.10;;;;;;5075971;28;20444;-76
2020/12/25 05:57:58;;;;;;;5.20;1.13;;;3.00;92.10;;;;;;5075819;28;20058;-76
2020/12/25 06:00:25;;;;;;;10.10;1.90;;;3.00;92.00;;;;;;5075756;28;20388;-77
2020/12/25 06:02:53;;;;;;;4.85;0.95;;;3.00;92.20;;;;;;5075995;28;20602;-76
2020/12/25 06:05:20;;;;;;;9.25;1.48;;;3.10;92.00;;;;;;5093721;28;20028;-76
2020/12/25 06:07:58;;;;;;;7.10;1.35;;;3.10;92.00;;;;;;5076099;28;20076;-76
2020/12/25 06:10:28;;;;;;;5.85;1.13;;;3.10;92.00;;;;;;5079755;28;20034;-76
2020/12/25 06:12:55;;;;;;;5.45;1.40;;;3.10;92.00;;;;;;5085983;28;20065;-76
2020/12/25 06:15:33;;;;;;;3.95;1.10;;;3.10;92.00;;;;;;5058306;28;20060;-76
2020/12/25 06:18:03;;;;;;;8.30;1.83;;;3.00;91.90;;;;;;5075279;28;20074;-76
2020/12/25 06:20:34;;;;;;;10.38;1.20;;;3.00;91.90;;;;;;5075076;28;20384;-75
2020/12/25 06:23:03;;;;;;;6.78;1.20;;;2.90;92.00;;;;;;5093427;28;20042;-76
2020/12/25 06:25:29;;;;;;;9.43;1.90;;;2.90;92.00;;;;;;5075549;28;20484;-76
2020/12/25 06:27:59;;;;;;;3.05;0.88;;;2.90;92.00;;;;;;5075501;28;20023;-76
2020/12/25 06:30:26;;;;;;;8.68;1.23;;;2.90;92.00;;;;;;5059203;28;20059;-76
2020/12/25 06:32:54;;;;;;;3.47;0.88;;;2.90;92.00;;;;;;5092801;28;20388;-76
2020/12/25 06:35:35;;;;;;;5.63;1.13;;;2.80;92.00;;;;;;5074847;28;20036;-76
2020/12/25 06:38:18;;;;;;;7.30;1.33;;;2.80;92.10;;;;;;5075077;28;20062;-77
2020/12/25 06:40:44;;;;;;;13.10;1.10;;;2.80;92.00;;;;;;5075009;28;20024;-77
2020/12/25 06:43:17;;;;;;;6.40;1.02;;;2.80;92.20;;;;;;5075387;28;20035;-77
2020/12/25 06:45:45;;;;;;;11.25;1.23;;;2.70;92.00;;;;;;5075053;28;20024;-76
2020/12/25 06:48:17;;;;;;;5.93;0.90;;;2.70;92.00;;;;;;5075183;28;20043;-77
2020/12/25 06:50:45;;;;;;;2.60;1.13;;;2.70;92.00;;;;;;5093054;28;20024;-77
2020/12/25 06:53:30;;;;;;;7.30;1.35;;;2.80;92.00;;;;;;5074787;28;20032;-76
2020/12/25 06:56:13;;;;;;;5.03;1.05;;;2.70;92.00;;;;;;5074933;28;20028;-76
2020/12/25 06:58:47;;;;;;;6.13;1.17;;;2.80;92.10;;;;;;5092884;28;20036;-77
2020/12/25 07:01:15;;;;;;;10.75;1.42;;;2.80;92.00;;;;;;5092843;28;20035;-77
2020/12/25 07:03:41;;;;;;;4.05;1.20;;;2.80;92.00;;;;;;5058675;28;20453;-76
2020/12/25 07:06:12;;;;;;;8.82;1.80;;;2.80;92.10;;;;;;5074765;28;20020;-76
2020/12/25 07:08:44;;;;;;;10.57;1.15;;;2.80;92.10;;;;;;5091438;28;20127;-76
2020/12/25 07:11:10;;;;;;;5.47;1.00;;;2.80;92.10;;;;;;5054929;28;20037;-76
2020/12/25 07:13:37;;;;;;;9.30;1.33;;;2.80;92.00;;;;;;5072851;28;20038;-76
2020/12/25 07:16:04;;;;;;;6.60;1.00;;;2.80;92.10;;;;;;5054975;28;20021;-76
2020/12/25 07:18:30;;;;;;;8.55;1.00;;;2.80;92.10;;;;;;5072788;28;20436;-76
2020/12/25 07:21:01;;;;;;;6.65;1.10;;;2.80;92.10;;;;;;5072714;28;20060;-76
2020/12/25 07:23:27;;;;;;;6.05;0.90;;;2.80;92.10;;;;;;5038508;28;20104;-76
2020/12/25 07:25:58;;;;;;;6.38;1.00;;;2.80;92.10;;;;;;5038195;28;20060;-78
2020/12/25 07:28:25;;;;;;;4.95;0.90;;;2.80;92.10;;;;;;5072378;28;20021;-78
2020/12/25 07:30:52;;;;;;;10.18;0.93;;;2.80;92.10;;;;;;5054396;28;20028;-78
2020/12/25 07:33:18;;;;;;;6.68;0.93;;;2.80;92.10;;;;;;5072349;28;20074;-78
2020/12/25 07:35:44;;;;;;;5.15;1.13;;;2.80;92.10;;;;;;5037756;28;20032;-78
2020/12/25 07:38:13;;;;;;;9.15;1.10;;;2.90;92.10;;;;;;5054908;28;20024;-78
2020/12/25 07:40:41;;;;;;;5.63;1.33;;;2.90;92.10;;;;;;5054068;28;20024;-78
2020/12/25 07:43:06;;;;;;;5.57;1.40;;;2.90;92.00;;;;;;5054070;28;20036;-78
2020/12/25 07:45:33;;;;;;;4.20;1.30;;;2.90;92.00;;;;;;5054206;28;20389;-78
2020/12/25 07:48:01;;;;;;;5.35;1.10;;;2.80;92.00;;;;;;5074188;28;20016;-78
2020/12/25 07:50:27;;;;;;;7.85;1.50;;;2.80;92.30;;;;;;5075816;28;20412;-78
2020/12/25 07:52:52;;;;;;;9.75;1.77;;;2.80;92.10;;;;;;5041583;28;20033;-78
2020/12/25 07:55:23;;;;;;;7.13;1.50;;;2.80;92.10;;;;;;5058188;28;20115;-78
2020/12/25 07:57:51;;;;;;;6.10;1.33;;;2.70;92.20;;;;;;5058172;28;20082;-78
2020/12/25 08:00:16;;;;;;;7.43;1.27;;;2.70;92.30;;;;;;5075652;28;20435;-78
2020/12/25 08:02:42;;;;;;;9.27;1.65;;;2.70;92.30;;;;;;5057966;28;20036;-78
2020/12/25 08:05:09;;;;;;;7.00;1.58;;;2.80;92.40;;;;;;5041005;28;20119;-79
2020/12/25 08:07:42;;;;;;;7.07;1.67;;;2.80;92.40;;;;;;5067451;28;20397;-77
2020/12/25 08:10:13;;;;;;;9.90;1.20;;;2.90;92.50;;;;;;5073931;28;20024;-77
2020/12/25 08:12:50;;;;;;;7.75;1.60;;;2.90;92.50;;;;;;5075589;28;20052;-77
2020/12/25 08:15:17;;;;;;;8.15;1.38;;;3.00;92.50;;;;;;5075445;28;20099;-76
2020/12/25 08:17:47;;;;;;;12.10;2.70;;;3.10;92.40;;;;;;5076404;28;20044;-76
2020/12/25 08:20:13;;;;;;;7.43;1.70;;;3.10;92.40;;;;;;5067686;28;20090;-77
2020/12/25 08:22:38;;;;;;;8.80;1.88;;;3.20;92.40;;;;;;5075074;28;20107;-77
2020/12/25 08:25:05;;;;;;;12.80;1.65;;;3.20;92.30;;;;;;5073594;28;20032;-75
2020/12/25 08:27:34;;;;;;;10.30;1.85;;;3.20;92.30;;;;;;5075396;28;20078;-75
2020/12/25 08:30:01;;;;;;;6.60;1.30;;;3.30;92.20;;;;;;5074065;28;20461;-75
2020/12/25 08:32:29;;;;;;;15.20;2.00;;;3.30;92.20;;;;;;5073760;28;20477;-76
2020/12/25 08:35:11;;;;;;;9.48;1.77;;;3.30;92.10;;;;;;5073485;28;20024;-76
2020/12/25 08:37:37;;;;;;;10.50;1.80;;;3.30;92.20;;;;;;5075058;28;20118;-76
2020/12/25 08:40:13;;;;;;;12.77;2.25;;;3.30;92.10;;;;;;5073143;28;20032;-75
2020/12/25 08:42:39;;;;;;;9.23;1.75;;;3.40;92.10;;;;;;5065431;28;20099;-78
2020/12/25 08:45:05;;;;;;;9.23;2.08;;;3.40;92.10;;;;;;5073357;28;20111;-75
2020/12/25 08:47:30;;;;;;;12.88;2.53;;;3.50;92.00;;;;;;5057072;28;20059;-75
2020/12/25 08:49:56;;;;;;;9.35;1.88;;;3.50;92.00;;;;;;5076730;28;20033;-76
2020/12/25 08:52:22;;;;;;;11.35;2.15;;;3.40;92.00;;;;;;5073705;28;20036;-76
2020/12/25 08:54:58;;;;;;;6.60;1.95;;;3.50;92.10;;;;;;5074531;28;20099;-75
2020/12/25 08:57:24;;;;;;;9.43;2.08;;;3.50;92.10;;;;;;5074961;28;20028;-75
2020/12/25 09:00:04;;;;;;;12.93;2.00;;;3.60;92.00;;;;;;5072094;28;20071;-76
2020/12/25 09:02:30;;;;;;;9.35;1.85;;;3.60;92.00;;;;;;5074180;28;20142;-75
2020/12/25 09:04:55;;;;;;;11.70;2.25;;;3.60;92.00;;;;;;5074266;28;20413;-76
2020/12/25 09:07:21;;;;;;;8.52;2.42;;;3.60;91.90;;;;;;5054615;28;20041;-76
2020/12/25 09:09:46;;;;;;;13.05;2.70;;;3.60;91.90;;;;;;5110555;28;20442;-76
2020/12/25 09:12:12;;;;;;;10.27;2.15;;;3.60;91.90;;;;;;5080251;28;20054;-78
2020/12/25 09:14:37;;;;;;;10.57;2.65;;;3.60;91.90;;;;;;5077157;28;20063;-77
2020/12/25 09:17:03;;;;;;;8.13;1.98;;;3.60;91.90;;;;;;5094576;28;20442;-77
2020/12/25 09:19:29;;;;;;;13.27;2.38;;;3.60;92.00;;;;;;5043226;28;20051;-77
2020/12/25 09:21:54;;;;;;;8.88;2.50;;;3.60;91.90;;;;;;5094791;28;20129;-77
2020/12/25 09:24:20;;;;;;;10.25;2.88;;;3.60;91.90;;;;;;5110248;28;20165;-76
2020/12/25 09:26:47;;;;;;;10.93;3.33;;;3.60;91.90;;;;;;5094341;28;20028;-77
2020/12/25 09:29:13;;;;;;;15.05;3.88;;;3.60;91.90;;;;;;5076294;28;20024;-77
2020/12/25 09:31:38;;;;;;;17.00;3.28;;;3.50;91.80;;;;;;5069711;28;20028;-77
2020/12/25 09:34:04;;;;;;;15.57;2.88;;;3.50;91.90;;;;;;5063902;28;20023;-77
2020/12/25 09:36:30;;;;;;;14.95;3.13;;;3.40;91.90;;;;;;5085381;28;20025;-78
2020/12/25 09:38:56;;;;;;;16.10;3.47;;;3.40;91.90;;;;;;5096184;28;20028;-77
2020/12/25 09:41:21;;;;;;;11.80;3.08;;;3.40;91.90;;;;;;5075652;28;20047;-80
2020/12/25 09:43:47;;;;;;;10.07;2.97;;;3.40;92.00;;;;;;5076017;28;20031;-78
2020/12/25 09:46:12;;;;;;;10.77;2.67;;;3.40;92.00;;;;;;5058926;28;21633;-77
2020/12/25 09:48:38;;;;;;;12.80;3.00;;;3.50;92.00;;;;;;5094473;28;20028;-78
2020/12/25 09:51:05;;;;;;;8.73;2.85;;;3.40;92.00;;;;;;5075979;28;20112;-78
2020/12/25 09:53:30;;;;;;;8.90;3.05;;;3.50;92.00;;;;;;5093703;28;20027;-78
2020/12/25 09:55:56;;;;;;;16.60;3.65;;;3.50;91.90;;;;;;5075533;28;20033;-78
2020/12/25 09:58:21;;;;;;;8.07;2.67;;;3.40;91.90;;;;;;5093934;28;20028;-77
2020/12/25 10:00:47;;;;;;;14.63;3.10;;;3.40;91.90;;;;;;5055337;28;20083;-77
2020/12/25 10:03:13;;;;;;;13.02;3.15;;;3.40;91.90;;;;;;5104885;28;20090;-78
2020/12/25 10:05:38;;;;;;;12.68;3.08;;;3.40;91.90;;;;;;5090947;28;20098;-78
2020/12/25 10:08:04;;;;;;;10.50;3.75;;;3.40;91.90;;;;;;5058678;28;20395;-78
2020/12/25 10:10:29;;;;;;;16.75;3.45;;;3.50;92.00;;;;;;5103914;28;20051;-77
2020/12/25 10:12:55;;;;;;;15.63;3.40;;;3.50;92.10;;;;;;5130021;27;20088;-77
2020/12/25 10:15:22;;;;;;;15.93;2.90;;;3.60;92.10;;;;;;5113047;28;20042;-77
2020/12/25 10:17:47;;;;;;;10.63;2.90;;;3.70;92.10;;;;;;5095267;28;20043;-78
2020/12/25 10:20:13;;;;;;;11.57;2.90;;;3.70;92.20;;;;;;5082543;28;20024;-78
2020/12/25 10:22:39;;;;;;;14.77;2.97;;;3.80;92.10;;;;;;5058351;28;20388;-78
2020/12/25 10:25:05;;;;;;;11.55;2.78;;;3.90;92.10;;;;;;5075179;28;20346;-76
2020/12/25 10:27:31;;;;;;;10.43;2.47;;;4.00;92.10;;;;;;5075158;28;20034;-76
2020/12/25 10:29:57;;;;;;;11.85;3.25;;;4.00;92.00;;;;;;5055023;28;20036;-76
2020/12/25 10:32:22;;;;;;;13.32;2.65;;;4.10;91.80;;;;;;5057718;28;20124;-76
2020/12/25 10:34:48;;;;;;;13.13;2.85;;;4.20;91.70;;;;;;5075193;28;20379;-76
2020/12/25 10:37:14;;;;;;;15.32;2.70;;;4.30;91.70;;;;;;5073819;28;20029;-75
2020/12/25 10:39:40;;;;;;;11.80;2.10;;;4.40;91.60;;;;;;5057741;28;20032;-75
2020/12/25 10:42:10;;;;;;;11.73;2.10;;;4.40;91.60;;;;;;5092556;28;20412;-75
2020/12/25 10:44:36;;;;;;;15.00;1.90;;;4.50;91.30;;;;;;5097952;28;20023;-78
2020/12/25 10:47:02;;;;;;;13.30;2.15;;;4.60;91.00;;;;;;5074274;28;20643;-78
2020/12/25 10:49:27;;;;;;;8.75;1.80;;;4.60;91.00;;;;;;5074165;28;20114;-78
2020/12/25 10:51:53;;;;;;;12.15;1.75;;;4.70;90.70;;;;;;5073597;28;20063;-78
2020/12/25 10:54:19;;;;;;;11.50;2.05;;;4.80;90.40;;;;;;5073774;28;20028;-79
2020/12/25 10:56:44;;;;;;;16.02;1.90;;;4.80;90.40;;;;;;5040836;28;20379;-78
2020/12/25 10:59:10;;;;;;;12.63;1.85;;;4.90;90.40;;;;;;5071718;28;20503;-78
2020/12/25 11:01:36;;;;;;;12.73;1.77;;;5.00;90.40;;;;;;5095620;28;20111;-80
2020/12/25 11:04:02;;;;;;;17.13;2.25;;;5.00;90.20;;;;;;5057371;28;20115;-81
2020/12/25 11:06:37;;;;;;;13.55;1.65;;;5.10;89.60;;;;;;5053568;28;20058;-81
2020/12/25 11:09:05;;;;;;;10.85;1.80;;;5.10;89.40;;;;;;5101828;28;20081;-81
2020/12/25 11:11:32;;;;;;;10.93;1.80;;;5.20;88.70;;;;;;5067218;28;20020;-76
2020/12/25 11:13:58;;;;;;;11.55;1.90;;;5.20;89.70;;;;;;5092441;28;20107;-77
2020/12/25 11:16:26;;;;;;;9.27;1.63;;;5.20;88.90;;;;;;5087070;28;20035;-77
2020/12/25 11:18:53;;;;;;;10.95;2.28;;;5.30;89.10;;;;;;5070485;28;20381;-78
2020/12/25 11:21:23;;;;;;;13.52;2.15;;;5.30;88.80;;;;;;5069839;28;20031;-78
2020/12/25 11:23:50;;;;;;;13.63;1.70;;;5.40;88.10;;;;;;5070176;28;20109;-78
2020/12/25 11:26:31;;;;;;;15.75;2.08;;;5.50;87.90;;;;;;5078679;28;20024;-76
2020/12/25 11:28:58;;;;;;;9.18;1.75;;;5.60;88.00;;;;;;5102214;28;20041;-77
2020/12/25 11:31:25;;;;;;;11.18;2.10;;;5.60;87.00;;;;;;5094107;28;20420;-77
2020/12/25 11:33:52;;;;;;;10.77;1.90;;;5.60;86.70;;;;;;5072135;28;20103;-76
2020/12/25 11:36:20;;;;;;;13.90;2.30;;;5.70;86.40;;;;;;5077729;28;20031;-76
2020/12/25 11:38:46;;;;;;;12.00;1.58;;;5.80;86.30;;;;;;5107400;28;20036;-76
2020/12/25 11:41:14;;;;;;;10.80;2.08;;;5.80;86.30;;;;;;5095620;28;20481;-77
2020/12/25 11:43:40;;;;;;;8.32;1.77;;;5.90;85.10;;;;;;5061289;28;20043;-77
2020/12/25 11:46:07;;;;;;;10.95;1.95;;;6.00;85.60;;;;;;5076763;28;20119;-77
2020/12/25 11:48:34;;;;;;;12.55;2.03;;;6.40;83.50;;;;;;5077587;28;20365;-77
2020/12/25 11:51:00;;;;;;;11.73;1.50;;;7.10;79.90;;;;;;5089596;28;20527;-77
2020/12/25 11:53:26;;;;;;;11.60;2.03;;;7.80;76.80;;;;;;5072783;28;20123;-77
2020/12/25 11:55:52;;;;;;;8.85;1.40;;;8.20;74.40;;;;;;5074952;28;20111;-77
2020/12/25 11:58:18;;;;;;;9.27;1.60;;;8.40;74.50;;;;;;5060560;28;20119;-77
2020/12/25 12:00:44;;;;;;;8.90;1.63;;;8.30;74.10;;;;;;5089794;28;20106;-77
2020/12/25 12:03:10;;;;;;;11.45;1.20;;;7.90;75.90;;;;;;5076334;28;20032;-77
2020/12/25 12:05:39;;;;;;;10.45;1.08;;;7.50;77.10;;;;;;5078200;28;20069;-77
2020/12/25 12:08:04;;;;;;;12.07;1.30;;;7.10;78.90;;;;;;5077495;28;20044;-77
2020/12/25 12:10:30;;;;;;;9.10;1.38;;;7.20;79.40;;;;;;5067351;28;20497;-77
2020/12/25 12:12:55;;;;;;;8.85;1.30;;;7.70;78.40;;;;;;5095038;28;20032;-76
2020/12/25 12:15:21;;;;;;;11.52;1.50;;;8.30;75.90;;;;;;5072135;28;20024;-77
2020/12/25 12:17:47;;;;;;;14.02;1.73;;;8.70;74.40;;;;;;5094553;28;20085;-76
2020/12/25 12:20:12;;;;;;;12.40;1.40;;;8.90;72.50;;;;;;5077841;28;20076;-77
2020/12/25 12:22:38;;;;;;;9.93;1.50;;;9.10;70.80;;;;;;5077760;28;20486;-77
2020/12/25 12:25:06;;;;;;;14.35;1.45;;;9.20;70.30;;;;;;5077470;28;20077;-77
2020/12/25 12:27:32;;;;;;;13.27;1.60;;;8.60;70.70;;;;;;5077548;28;20058;-76
2020/12/25 12:29:58;;;;;;;7.20;1.42;;;8.00;73.20;;;;;;5087109;28;20666;-78
2020/12/25 12:32:24;;;;;;;6.50;1.17;;;7.60;76.10;;;;;;5051767;28;20124;-79
2020/12/25 12:34:49;;;;;;;8.32;1.33;;;7.30;77.80;;;;;;5090152;28;20032;-77
2020/12/25 12:37:15;;;;;;;11.48;1.83;;;7.10;79.00;;;;;;5057697;28;20025;-77
2020/12/25 12:39:41;;;;;;;7.40;1.42;;;7.00;79.80;;;;;;5070685;28;20036;-77
2020/12/25 12:42:06;;;;;;;5.72;1.52;;;6.90;79.90;;;;;;5077614;28;20028;-77
2020/12/25 12:44:32;;;;;;;9.30;1.55;;;6.80;80.00;;;;;;5077775;28;20404;-77
2020/12/25 12:46:57;;;;;;;9.93;1.58;;;6.70;80.80;;;;;;5044029;28;20027;-77
2020/12/25 12:49:23;;;;;;;9.80;1.30;;;6.70;80.30;;;;;;5077885;28;20468;-77